Time;durP1;ratioP1;P1;durP2;ratioP2;P2;SDS_P1;SDS_P2;PMS_P1;PMS_P2;Temp;Humidity;BMP_temperature;BMP_pressure;BME280_temperature;BME280_humidity;BME280_pressure;Samples;Min_cycle;Max_cycle;Signal;HPM_P1;HPM_P2
2022/04/19 00:00:38;;;;;;;39.40;17.65;;;;;;;;;;5042330;28;20068;-67
2022/04/19 00:03:08;;;;;;;36.35;17.83;;;;;;;;;;5041597;28;20125;-67
2022/04/19 00:05:35;;;;;;;40.17;17.90;;;;;;;;;;5046901;28;20031;-67
2022/04/19 00:08:00;;;;;;;37.47;19.10;;;;;;;;;;5031004;28;20562;-67
2022/04/19 00:10:28;;;;;;;40.03;18.30;;;;;;;;;;5045685;28;20132;-67
2022/04/19 00:12:58;;;;;;;40.15;18.88;;;;;;;;;;5039393;28;20048;-68
2022/04/19 00:15:27;;;;;;;39.97;18.77;;;;;;;;;;5045361;28;20506;-67
2022/04/19 00:17:52;;;;;;;41.50;19.60;;;;;;;;;;5046466;28;20037;-67
2022/04/19 00:20:17;;;;;;;45.50;19.73;;;;;;;;;;5061044;28;20503;-67
2022/04/19 00:22:43;;;;;;;41.47;19.38;;;;;;;;;;5050317;28;20044;-67
2022/04/19 00:25:08;;;;;;;36.20;17.98;;;;;;;;;;5049949;28;20049;-67
2022/04/19 00:27:34;;;;;;;39.40;17.42;;;;;;;;;;5049066;28;20041;-67
2022/04/19 00:30:00;;;;;;;38.80;18.38;;;;;;;;;;5050359;28;20414;-67
2022/04/19 00:32:25;;;;;;;37.97;17.10;;;;;;;;;;5050220;28;20059;-67
2022/04/19 00:34:51;;;;;;;40.72;19.02;;;;;;;;;;5049956;28;20029;-67
2022/04/19 00:37:18;;;;;;;45.47;19.98;;;;;;;;;;5050056;28;20485;-67
2022/04/19 00:39:44;;;;;;;37.25;18.35;;;;;;;;;;5049394;28;20040;-67
2022/04/19 00:42:10;;;;;;;38.10;18.42;;;;;;;;;;5049306;28;20037;-67
2022/04/19 00:44:39;;;;;;;39.28;18.10;;;;;;;;;;5045574;28;20185;-67
2022/04/19 00:47:07;;;;;;;38.75;18.85;;;;;;;;;;5040412;28;20035;-67
2022/04/19 00:49:34;;;;;;;41.20;19.15;;;;;;;;;;5044913;28;20073;-67
2022/04/19 00:52:00;;;;;;;40.03;17.77;;;;;;;;;;5046810;28;20044;-67
2022/04/19 00:54:26;;;;;;;39.00;18.17;;;;;;;;;;5049236;28;20064;-67
2022/04/19 00:56:53;;;;;;;38.83;18.90;;;;;;;;;;5051683;28;20041;-67
2022/04/19 00:59:21;;;;;;;40.17;19.05;;;;;;;;;;5049988;28;20047;-67
2022/04/19 01:01:46;;;;;;;41.88;19.15;;;;;;;;;;5034484;28;20037;-67
2022/04/19 01:04:12;;;;;;;40.13;18.65;;;;;;;;;;5039681;28;20049;-67
2022/04/19 01:06:37;;;;;;;38.15;18.30;;;;;;;;;;5039173;28;20048;-67
2022/04/19 01:09:02;;;;;;;41.72;20.20;;;;;;;;;;5036663;28;20040;-67
2022/04/19 01:14:13;;;;;;;40.05;20.27;;;;;;;;;;5045827;28;20079;-67
2022/04/19 01:16:40;;;;;;;46.13;20.10;;;;;;;;;;5048853;28;20052;-67
2022/04/19 01:19:15;;;;;;;46.72;20.80;;;;;;;;;;5037670;28;20063;-67
2022/04/19 01:21:50;;;;;;;48.03;21.58;;;;;;;;;;5048784;28;20056;-67
2022/04/19 01:24:19;;;;;;;46.80;20.55;;;;;;;;;;5056482;28;20052;-67
2022/04/19 01:26:45;;;;;;;42.30;21.75;;;;;;;;;;5049399;28;20087;-67
2022/04/19 01:29:12;;;;;;;50.90;22.30;;;;;;;;;;5047541;28;20032;-68
2022/04/19 01:31:39;;;;;;;50.22;23.20;;;;;;;;;;5047346;28;20399;-67
2022/04/19 01:34:05;;;;;;;45.08;20.60;;;;;;;;;;5044958;28;20569;-67
2022/04/19 01:36:33;;;;;;;47.85;22.25;;;;;;;;;;5049047;28;20124;-67
2022/04/19 01:38:58;;;;;;;45.03;21.05;;;;;;;;;;5040699;28;20087;-68
2022/04/19 01:41:25;;;;;;;46.70;20.25;;;;;;;;;;5048721;28;20065;-67
2022/04/19 01:43:51;;;;;;;49.85;23.33;;;;;;;;;;5048676;28;20033;-67
2022/04/19 01:46:17;;;;;;;54.95;23.77;;;;;;;;;;5047672;28;20481;-67
2022/04/19 01:48:42;;;;;;;46.38;22.27;;;;;;;;;;5063527;28;20608;-68
2022/04/19 01:51:08;;;;;;;46.97;21.92;;;;;;;;;;5049605;28;20032;-67
2022/04/19 01:53:33;;;;;;;49.60;23.35;;;;;;;;;;5048425;28;20394;-67
2022/04/19 01:55:59;;;;;;;48.50;22.55;;;;;;;;;;5058563;28;20024;-67
2022/04/19 01:58:24;;;;;;;55.92;24.13;;;;;;;;;;5047495;28;20056;-67
2022/04/19 02:00:49;;;;;;;54.78;23.35;;;;;;;;;;5042134;28;20057;-67
2022/04/19 02:03:15;;;;;;;50.83;22.42;;;;;;;;;;5035920;28;20099;-67
2022/04/19 02:05:40;;;;;;;46.80;21.35;;;;;;;;;;5055414;28;20116;-67
2022/04/19 02:08:06;;;;;;;50.58;21.70;;;;;;;;;;5049024;28;20471;-67
2022/04/19 02:10:31;;;;;;;56.08;24.27;;;;;;;;;;5048069;28;20037;-67
2022/04/19 02:12:57;;;;;;;52.70;23.33;;;;;;;;;;5044314;28;20086;-67
2022/04/19 02:15:22;;;;;;;54.60;24.27;;;;;;;;;;5042306;28;20411;-67
2022/04/19 02:17:49;;;;;;;55.28;23.80;;;;;;;;;;5047127;28;20037;-67
2022/04/19 02:20:16;;;;;;;53.95;23.52;;;;;;;;;;5046546;28;20392;-67
2022/04/19 02:22:42;;;;;;;54.38;24.08;;;;;;;;;;5048082;28;20124;-67
2022/04/19 02:25:09;;;;;;;52.53;23.60;;;;;;;;;;5047422;28;20132;-67
2022/04/19 02:27:34;;;;;;;51.47;23.02;;;;;;;;;;5043606;28;20095;-67
2022/04/19 02:30:04;;;;;;;54.85;23.25;;;;;;;;;;5044325;28;20033;-67
2022/04/19 02:32:30;;;;;;;55.33;24.00;;;;;;;;;;5048025;28;20025;-67
2022/04/19 02:34:57;;;;;;;58.35;24.20;;;;;;;;;;5047721;28;20029;-67
2022/04/19 02:37:22;;;;;;;54.55;23.83;;;;;;;;;;5047114;28;20036;-67
2022/04/19 02:39:48;;;;;;;53.75;22.50;;;;;;;;;;5047909;28;20029;-67
2022/04/19 02:42:14;;;;;;;61.92;23.65;;;;;;;;;;5046299;28;20496;-67
2022/04/19 02:44:39;;;;;;;51.08;23.42;;;;;;;;;;5041250;28;20035;-67
2022/04/19 02:47:05;;;;;;;49.13;22.58;;;;;;;;;;5046303;28;20033;-67
2022/04/19 02:49:31;;;;;;;49.42;22.15;;;;;;;;;;5047767;28;20033;-67
2022/04/19 02:51:56;;;;;;;51.03;22.05;;;;;;;;;;5046017;28;20044;-67
2022/04/19 02:54:21;;;;;;;52.10;23.13;;;;;;;;;;5048246;28;20511;-67
2022/04/19 02:56:50;;;;;;;52.85;22.50;;;;;;;;;;5049303;28;20468;-67
2022/04/19 02:59:15;;;;;;;51.53;23.13;;;;;;;;;;5026970;28;20025;-67
2022/04/19 03:01:42;;;;;;;49.65;22.45;;;;;;;;;;5039699;28;20040;-67
2022/04/19 03:04:07;;;;;;;54.28;23.00;;;;;;;;;;5052347;28;20524;-67
2022/04/19 03:06:32;;;;;;;55.50;24.23;;;;;;;;;;5039732;28;20065;-67
2022/04/19 03:08:58;;;;;;;57.25;24.90;;;;;;;;;;5041688;28;20032;-67
2022/04/19 03:11:23;;;;;;;57.22;23.48;;;;;;;;;;5047061;28;20120;-67
2022/04/19 03:13:49;;;;;;;56.70;24.30;;;;;;;;;;5043487;28;20494;-67
2022/04/19 03:16:14;;;;;;;57.55;24.00;;;;;;;;;;5046896;28;20572;-67
2022/04/19 03:18:41;;;;;;;57.83;24.92;;;;;;;;;;5036229;28;20041;-67
2022/04/19 03:21:10;;;;;;;51.47;23.67;;;;;;;;;;5043209;28;20091;-67
2022/04/19 03:29:09;;;;;;;58.30;24.77;;;;;;;;;;5047332;28;20047;-67
2022/04/19 03:31:34;;;;;;;62.25;25.20;;;;;;;;;;5034151;28;20410;-67
2022/04/19 03:34:01;;;;;;;54.33;23.58;;;;;;;;;;5039563;28;20036;-67
2022/04/19 03:36:26;;;;;;;50.97;23.25;;;;;;;;;;5046981;28;20064;-67
2022/04/19 03:38:53;;;;;;;59.13;25.70;;;;;;;;;;5045936;28;20462;-67
2022/04/19 03:41:19;;;;;;;55.03;23.70;;;;;;;;;;5046932;28;20021;-67
2022/04/19 03:43:44;;;;;;;55.85;24.73;;;;;;;;;;5046938;28;20037;-67
2022/04/19 03:46:10;;;;;;;53.40;24.13;;;;;;;;;;5046741;28;20418;-67
2022/04/19 03:48:35;;;;;;;55.30;24.92;;;;;;;;;;5046193;28;20033;-67
2022/04/19 03:51:03;;;;;;;51.72;23.73;;;;;;;;;;5047021;28;20044;-67
2022/04/19 03:53:28;;;;;;;48.28;23.50;;;;;;;;;;5048362;28;20394;-67
2022/04/19 03:55:53;;;;;;;57.22;24.48;;;;;;;;;;5051783;28;20029;-67
2022/04/19 03:58:19;;;;;;;51.75;22.88;;;;;;;;;;5050696;28;20072;-67
2022/04/19 04:00:44;;;;;;;49.08;21.88;;;;;;;;;;5049575;28;20519;-67
2022/04/19 04:03:09;;;;;;;52.83;22.77;;;;;;;;;;5047770;28;20029;-67
2022/04/19 04:05:35;;;;;;;46.45;22.25;;;;;;;;;;5050826;28;20025;-67
2022/04/19 04:08:00;;;;;;;51.72;24.30;;;;;;;;;;5052546;28;20021;-67
2022/04/19 04:10:25;;;;;;;60.53;24.33;;;;;;;;;;5055694;28;20040;-67
2022/04/19 04:12:51;;;;;;;58.30;25.05;;;;;;;;;;5057745;28;20078;-67
2022/04/19 04:15:16;;;;;;;50.53;23.60;;;;;;;;;;5050358;28;20033;-67
2022/04/19 04:17:42;;;;;;;55.28;24.55;;;;;;;;;;5044029;28;20490;-67
2022/04/19 04:20:08;;;;;;;57.53;24.83;;;;;;;;;;5050661;28;20025;-67
2022/04/19 04:22:33;;;;;;;56.38;23.50;;;;;;;;;;5049332;28;20037;-67
2022/04/19 04:24:59;;;;;;;51.20;22.27;;;;;;;;;;5050452;28;20539;-67
2022/04/19 04:27:24;;;;;;;54.90;24.25;;;;;;;;;;5049351;28;20033;-67
2022/04/19 04:29:50;;;;;;;52.88;23.45;;;;;;;;;;5049617;28;20029;-67
2022/04/19 04:32:16;;;;;;;49.03;22.88;;;;;;;;;;5046727;28;20513;-67
2022/04/19 04:34:42;;;;;;;56.97;24.63;;;;;;;;;;5050137;28;20454;-67
2022/04/19 04:37:07;;;;;;;51.33;23.67;;;;;;;;;;5047857;28;20410;-67
2022/04/19 04:39:32;;;;;;;53.45;23.45;;;;;;;;;;5047542;28;20084;-67
2022/04/19 04:41:58;;;;;;;51.30;22.35;;;;;;;;;;5049944;28;20467;-67
2022/04/19 04:44:23;;;;;;;53.38;22.35;;;;;;;;;;5050351;28;20467;-67
2022/04/19 04:49:35;;;;;;;48.05;21.90;;;;;;;;;;5047403;28;20173;-68
2022/04/19 04:52:01;;;;;;;51.65;22.33;;;;;;;;;;5049600;28;20033;-68
2022/04/19 04:54:26;;;;;;;51.80;21.80;;;;;;;;;;5049643;28;20036;-69
2022/04/19 04:56:52;;;;;;;48.72;22.95;;;;;;;;;;5048518;28;20410;-70
2022/04/19 04:59:18;;;;;;;53.45;22.45;;;;;;;;;;5048861;28;20593;-70
2022/04/19 05:01:43;;;;;;;53.45;23.83;;;;;;;;;;5041487;28;20037;-70
2022/04/19 05:04:09;;;;;;;53.30;22.33;;;;;;;;;;5041065;28;20037;-70
2022/04/19 05:06:34;;;;;;;47.92;21.70;;;;;;;;;;5048683;28;20469;-70
2022/04/19 05:08:59;;;;;;;44.50;20.38;;;;;;;;;;5049034;28;20128;-70
2022/04/19 05:11:24;;;;;;;48.72;22.27;;;;;;;;;;5049793;28;20131;-70
2022/04/19 05:13:50;;;;;;;52.67;22.13;;;;;;;;;;5042909;28;20033;-70
2022/04/19 05:16:15;;;;;;;56.15;23.25;;;;;;;;;;5047598;28;20128;-70
2022/04/19 05:18:40;;;;;;;48.78;22.02;;;;;;;;;;5032994;28;20136;-70
2022/04/19 05:21:07;;;;;;;51.50;22.23;;;;;;;;;;5057754;28;20032;-70
2022/04/19 05:23:32;;;;;;;47.25;22.13;;;;;;;;;;5043743;28;20021;-69
2022/04/19 05:25:57;;;;;;;48.38;20.85;;;;;;;;;;5049916;28;20394;-70
2022/04/19 05:28:23;;;;;;;48.97;21.42;;;;;;;;;;5042101;28;20052;-70
2022/04/19 05:30:48;;;;;;;55.80;21.42;;;;;;;;;;5048775;28;20059;-70
2022/04/19 05:33:13;;;;;;;50.58;20.13;;;;;;;;;;5038673;28;20048;-70
2022/04/19 05:35:39;;;;;;;48.63;20.33;;;;;;;;;;5050060;28;20020;-69
2022/04/19 05:38:04;;;;;;;46.03;21.20;;;;;;;;;;5042348;28;20103;-69
2022/04/19 05:40:30;;;;;;;49.88;22.70;;;;;;;;;;5043969;28;20041;-70
2022/04/19 05:42:55;;;;;;;50.13;22.17;;;;;;;;;;5047597;28;20037;-70
2022/04/19 05:45:21;;;;;;;53.78;23.95;;;;;;;;;;5046480;28;20163;-70
2022/04/19 05:47:46;;;;;;;48.45;21.58;;;;;;;;;;5048666;28;20036;-70
2022/04/19 05:50:11;;;;;;;58.15;22.95;;;;;;;;;;5049388;28;20052;-70
2022/04/19 05:52:37;;;;;;;57.30;24.15;;;;;;;;;;5048210;28;20044;-70
2022/04/19 05:55:03;;;;;;;47.22;23.15;;;;;;;;;;5050794;28;20094;-70
2022/04/19 05:57:29;;;;;;;55.60;23.50;;;;;;;;;;5068968;28;20082;-70
2022/04/19 05:59:54;;;;;;;53.67;24.88;;;;;;;;;;5061690;28;20037;-70
2022/04/19 06:05:04;;;;;;;;;;;;;;;;;;5049581;28;20048;-70
2022/04/19 06:07:30;;;;;;;58.65;24.13;;;;;;;;;;5047217;28;19917;-70
2022/04/19 06:09:56;;;;;;;59.42;25.02;;;;;;;;;;5046619;28;20037;-70
2022/04/19 06:12:21;;;;;;;59.15;26.25;;;;;;;;;;5047202;28;20036;-70
2022/04/19 06:14:47;;;;;;;60.03;26.40;;;;;;;;;;5046312;28;20032;-70
2022/04/19 06:17:21;;;;;;;60.53;26.75;;;;;;;;;;5048175;28;20097;-70
2022/04/19 06:19:46;;;;;;;56.08;24.50;;;;;;;;;;5054320;28;20178;-70
2022/04/19 06:22:11;;;;;;;56.33;25.35;;;;;;;;;;5041412;28;20120;-70
2022/04/19 06:24:37;;;;;;;62.17;25.63;;;;;;;;;;5039640;28;20060;-71
2022/04/19 06:27:03;;;;;;;64.90;27.50;;;;;;;;;;5045826;28;20032;-70
2022/04/19 06:29:28;;;;;;;63.97;27.42;;;;;;;;;;5046870;28;20025;-70
2022/04/19 06:31:54;;;;;;;54.15;25.98;;;;;;;;;;5047320;28;20037;-74
2022/04/19 06:34:19;;;;;;;60.67;27.85;;;;;;;;;;5036455;28;20059;-71
2022/04/19 06:36:44;;;;;;;60.63;28.10;;;;;;;;;;5046636;28;20041;-71
2022/04/19 06:39:10;;;;;;;66.55;28.90;;;;;;;;;;5047418;28;20033;-71
2022/04/19 06:41:36;;;;;;;60.83;28.15;;;;;;;;;;5046374;28;20043;-70
2022/04/19 06:44:02;;;;;;;67.90;28.65;;;;;;;;;;5048518;28;20028;-72
2022/04/19 06:46:27;;;;;;;75.47;32.35;;;;;;;;;;5045113;28;20037;-72
2022/04/19 06:48:56;;;;;;;71.00;32.45;;;;;;;;;;5047721;28;20074;-71
2022/04/19 06:51:22;;;;;;;71.63;31.42;;;;;;;;;;5046817;28;20037;-71
2022/04/19 06:53:48;;;;;;;70.72;31.63;;;;;;;;;;5048030;28;20103;-71
2022/04/19 06:56:14;;;;;;;81.05;33.47;;;;;;;;;;5050312;28;20113;-71
2022/04/19 06:58:39;;;;;;;77.47;33.30;;;;;;;;;;5047568;28;20103;-72
2022/04/19 07:01:06;;;;;;;79.25;34.55;;;;;;;;;;5046559;28;20524;-71
2022/04/19 07:03:33;;;;;;;80.93;33.45;;;;;;;;;;5041198;28;20056;-69
2022/04/19 07:05:59;;;;;;;84.32;35.63;;;;;;;;;;5031640;28;20036;-71
2022/04/19 07:08:24;;;;;;;81.55;37.58;;;;;;;;;;5047995;28;20379;-71
2022/04/19 07:10:49;;;;;;;79.68;35.70;;;;;;;;;;5046820;28;20040;-71
2022/04/19 07:13:15;;;;;;;86.32;36.78;;;;;;;;;;5047031;28;20807;-71
2022/04/19 07:15:40;;;;;;;81.72;35.58;;;;;;;;;;5047241;28;20083;-70
2022/04/19 07:18:06;;;;;;;81.78;36.83;;;;;;;;;;5045920;28;20124;-73
2022/04/19 07:28:43;;;;;;;84.03;36.65;;;;;;;;;;5046621;28;19920;-71
2022/04/19 07:31:09;;;;;;;77.40;35.53;;;;;;;;;;5046651;28;20049;-71
2022/04/19 07:33:38;;;;;;;84.03;37.38;;;;;;;;;;5034619;28;20037;-71
2022/04/19 07:36:07;;;;;;;78.85;36.60;;;;;;;;;;5047055;28;20033;-71
2022/04/19 07:38:33;;;;;;;78.63;37.20;;;;;;;;;;5039777;28;20505;-70
2022/04/19 07:40:59;;;;;;;86.60;39.88;;;;;;;;;;5047139;28;20060;-71
2022/04/19 07:43:25;;;;;;;76.55;36.47;;;;;;;;;;5046659;28;20041;-71
2022/04/19 07:45:50;;;;;;;77.43;37.28;;;;;;;;;;5045746;28;20040;-71
2022/04/19 07:48:16;;;;;;;74.30;34.45;;;;;;;;;;5046674;28;20048;-71
2022/04/19 07:50:42;;;;;;;79.60;37.85;;;;;;;;;;5047033;28;20448;-70
2022/04/19 07:53:08;;;;;;;81.50;38.22;;;;;;;;;;5036554;28;20074;-71
2022/04/19 07:55:33;;;;;;;79.68;37.13;;;;;;;;;;5051911;28;20021;-71
2022/04/19 07:57:59;;;;;;;77.93;36.17;;;;;;;;;;5050890;28;20041;-71
2022/04/19 08:00:27;;;;;;;76.65;36.50;;;;;;;;;;5032149;28;20091;-70
2022/04/19 08:02:56;;;;;;;81.93;38.80;;;;;;;;;;5046590;28;20044;-70
2022/04/19 08:05:22;;;;;;;76.18;35.03;;;;;;;;;;5047026;28;20021;-70
2022/04/19 08:07:49;;;;;;;79.40;37.67;;;;;;;;;;5046765;28;20051;-71
2022/04/19 08:10:15;;;;;;;80.15;38.53;;;;;;;;;;5046632;28;20095;-71
2022/04/19 08:12:40;;;;;;;77.88;38.38;;;;;;;;;;5046599;28;20025;-71
2022/04/19 08:15:06;;;;;;;80.07;37.83;;;;;;;;;;5043364;28;20033;-71
2022/04/19 08:17:33;;;;;;;77.05;36.40;;;;;;;;;;5037054;28;20044;-70
2022/04/19 08:19:58;;;;;;;71.95;35.42;;;;;;;;;;5055701;28;20067;-71
2022/04/19 08:22:24;;;;;;;72.57;36.35;;;;;;;;;;5038223;28;20075;-71
2022/04/19 08:24:49;;;;;;;74.38;36.72;;;;;;;;;;5046599;28;20529;-70
2022/04/19 08:27:16;;;;;;;85.97;37.17;;;;;;;;;;5046235;28;20120;-71
2022/04/19 08:29:43;;;;;;;77.90;37.30;;;;;;;;;;5046181;28;20108;-71
2022/04/19 08:32:08;;;;;;;78.60;36.65;;;;;;;;;;5032048;28;20024;-70
2022/04/19 08:34:34;;;;;;;73.40;36.30;;;;;;;;;;5032624;28;20044;-71
2022/04/19 08:36:59;;;;;;;79.45;37.42;;;;;;;;;;5038828;28;20037;-70
2022/04/19 08:39:24;;;;;;;73.38;35.80;;;;;;;;;;5043753;28;20674;-71
2022/04/19 08:41:50;;;;;;;81.07;35.78;;;;;;;;;;5042473;28;20536;-70
2022/04/19 08:44:15;;;;;;;74.35;36.58;;;;;;;;;;5046146;28;20078;-71
2022/04/19 08:46:42;;;;;;;76.45;35.85;;;;;;;;;;5039590;28;20033;-71
2022/04/19 08:49:09;;;;;;;75.90;38.95;;;;;;;;;;5044640;28;20043;-71
2022/04/19 08:51:36;;;;;;;69.90;35.67;;;;;;;;;;5049957;28;20061;-71
2022/04/19 08:59:30;;;;;;;;;;;;;;;;;;5040467;28;20036;-70
2022/04/19 09:01:56;;;;;;;70.65;35.42;;;;;;;;;;5046122;28;19917;-71
2022/04/19 09:04:25;;;;;;;66.55;34.47;;;;;;;;;;5044313;28;20071;-71
2022/04/19 09:06:58;;;;;;;62.08;32.63;;;;;;;;;;5049567;28;20044;-70
2022/04/19 09:09:25;;;;;;;62.70;32.40;;;;;;;;;;5048785;28;20048;-71
2022/04/19 09:11:51;;;;;;;68.72;34.95;;;;;;;;;;5049889;28;20037;-71
2022/04/19 09:14:17;;;;;;;70.60;35.00;;;;;;;;;;5043134;28;20098;-71
2022/04/19 09:16:44;;;;;;;66.07;33.38;;;;;;;;;;5046757;28;20033;-71
2022/04/19 09:19:09;;;;;;;55.40;31.05;;;;;;;;;;5052829;28;20053;-71
2022/04/19 09:21:37;;;;;;;51.20;27.45;;;;;;;;;;5053967;28;20036;-70
2022/04/19 09:24:17;;;;;;;51.22;27.67;;;;;;;;;;5048746;28;20032;-71
2022/04/19 09:26:42;;;;;;;53.28;28.17;;;;;;;;;;5048338;28;20024;-71
2022/04/19 09:29:21;;;;;;;57.88;28.95;;;;;;;;;;5048024;28;20020;-71
2022/04/19 09:31:52;;;;;;;56.72;30.55;;;;;;;;;;5036995;28;20128;-71
2022/04/19 09:34:28;;;;;;;68.07;31.13;;;;;;;;;;5035996;28;20076;-71
2022/04/19 09:37:13;;;;;;;62.22;29.90;;;;;;;;;;5041577;28;20033;-71
2022/04/19 09:39:41;;;;;;;53.05;28.17;;;;;;;;;;5042563;28;20128;-71
2022/04/19 09:42:16;;;;;;;62.65;29.65;;;;;;;;;;5048487;28;20059;-71
2022/04/19 09:44:43;;;;;;;51.88;28.30;;;;;;;;;;5048439;28;20079;-70
2022/04/19 09:47:12;;;;;;;57.35;29.65;;;;;;;;;;5049416;28;20064;-71
2022/04/19 09:49:55;;;;;;;54.45;29.80;;;;;;;;;;5048862;28;20550;-71
2022/04/19 09:52:20;;;;;;;57.28;28.55;;;;;;;;;;5048699;28;20120;-71
2022/04/19 09:55:08;;;;;;;59.25;30.77;;;;;;;;;;5047638;28;20132;-71
2022/04/19 09:57:36;;;;;;;57.45;29.48;;;;;;;;;;5069145;28;20123;-71
2022/04/19 10:00:10;;;;;;;58.95;29.33;;;;;;;;;;5040633;28;20043;-71
2022/04/19 10:08:19;;;;;;;59.92;26.75;;;;;;;;;;5046443;28;20079;-71
2022/04/19 10:10:47;;;;;;;43.10;22.88;;;;;;;;;;5048020;28;20033;-70
2022/04/19 10:13:13;;;;;;;42.72;20.00;;;;;;;;;;5046095;28;20049;-70
2022/04/19 10:15:40;;;;;;;41.55;20.50;;;;;;;;;;5038704;28;20037;-71
2022/04/19 10:18:07;;;;;;;39.20;19.75;;;;;;;;;;5047779;28;20429;-70
2022/04/19 10:20:36;;;;;;;50.53;19.02;;;;;;;;;;5047868;28;20036;-70
2022/04/19 10:23:08;;;;;;;32.83;18.23;;;;;;;;;;5048783;28;20031;-71
2022/04/19 10:25:43;;;;;;;33.03;18.30;;;;;;;;;;5047593;28;20044;-71
2022/04/19 10:28:08;;;;;;;34.25;18.35;;;;;;;;;;5046753;28;20040;-70
2022/04/19 10:30:38;;;;;;;35.70;18.45;;;;;;;;;;5047569;28;20036;-71
2022/04/19 10:33:38;;;;;;;37.05;19.17;;;;;;;;;;5042793;28;20037;-71
2022/04/19 10:36:31;;;;;;;37.28;18.65;;;;;;;;;;5047225;28;20029;-71
2022/04/19 10:39:11;;;;;;;33.47;18.17;;;;;;;;;;5047830;28;20534;-71
2022/04/19 10:42:03;;;;;;;35.08;19.50;;;;;;;;;;5042652;28;20028;-70
2022/04/19 10:44:43;;;;;;;33.63;18.90;;;;;;;;;;5045923;28;20428;-71
2022/04/19 10:47:11;;;;;;;31.23;18.13;;;;;;;;;;5044923;28;20075;-69
2022/04/19 10:50:06;;;;;;;35.85;19.75;;;;;;;;;;5044065;28;20025;-70
2022/04/19 10:52:38;;;;;;;34.42;20.02;;;;;;;;;;5042813;28;20052;-70
2022/04/19 10:55:36;;;;;;;36.45;19.80;;;;;;;;;;5050120;28;20103;-74
2022/04/19 10:58:17;;;;;;;32.03;18.95;;;;;;;;;;5059193;28;20667;-73
2022/04/19 11:00:58;;;;;;;34.42;18.17;;;;;;;;;;5031575;28;20069;-73
2022/04/19 11:03:29;;;;;;;31.48;17.60;;;;;;;;;;5048920;28;20044;-74
2022/04/19 11:05:57;;;;;;;32.90;17.42;;;;;;;;;;5045856;28;20111;-73
2022/04/19 11:08:25;;;;;;;33.22;18.83;;;;;;;;;;5046058;28;20055;-73
2022/04/19 11:10:52;;;;;;;31.17;17.42;;;;;;;;;;5046504;28;20427;-73
2022/04/19 11:13:38;;;;;;;34.50;18.60;;;;;;;;;;5045309;28;20037;-73
2022/04/19 11:16:13;;;;;;;34.20;18.40;;;;;;;;;;5046810;28;20037;-73
2022/04/19 11:18:41;;;;;;;31.92;18.38;;;;;;;;;;5046446;28;20125;-73
2022/04/19 11:21:15;;;;;;;32.35;18.65;;;;;;;;;;5038245;28;20725;-73
2022/04/19 11:23:43;;;;;;;32.03;18.27;;;;;;;;;;5046581;28;20028;-73
2022/04/19 11:26:33;;;;;;;34.20;18.75;;;;;;;;;;5047179;28;20028;-73
2022/04/19 11:29:10;;;;;;;35.15;18.95;;;;;;;;;;5045430;28;20082;-73
2022/04/19 11:31:45;;;;;;;31.55;19.50;;;;;;;;;;5044199;28;20040;-73
2022/04/19 11:34:11;;;;;;;32.53;19.83;;;;;;;;;;5033104;28;20041;-73
2022/04/19 11:36:36;;;;;;;35.25;19.38;;;;;;;;;;5046466;28;20407;-73
2022/04/19 11:39:02;;;;;;;32.55;18.38;;;;;;;;;;5044765;28;20125;-73
2022/04/19 11:46:58;;;;;;;29.65;17.15;;;;;;;;;;5046407;28;20052;-73
2022/04/19 11:49:27;;;;;;;33.40;18.77;;;;;;;;;;5032379;28;20033;-73
2022/04/19 11:52:06;;;;;;;36.13;20.85;;;;;;;;;;5045370;28;20040;-73
2022/04/19 11:54:32;;;;;;;39.22;21.15;;;;;;;;;;5046587;28;20029;-73
2022/04/19 11:56:58;;;;;;;36.28;20.52;;;;;;;;;;5043144;28;20038;-73
2022/04/19 11:59:31;;;;;;;37.17;20.52;;;;;;;;;;5037052;28;20029;-73
2022/04/19 12:01:57;;;;;;;32.80;18.70;;;;;;;;;;5044840;28;20033;-73
2022/04/19 12:04:23;;;;;;;35.15;18.83;;;;;;;;;;5055770;28;20419;-73
2022/04/19 12:06:50;;;;;;;35.20;20.05;;;;;;;;;;5054974;28;20041;-73
2022/04/19 12:09:17;;;;;;;35.97;21.27;;;;;;;;;;5046003;28;20049;-73
2022/04/19 12:11:43;;;;;;;37.65;22.23;;;;;;;;;;5046384;28;20100;-73
2022/04/19 12:14:09;;;;;;;38.00;23.40;;;;;;;;;;5039199;28;20391;-73
2022/04/19 12:16:42;;;;;;;37.88;21.38;;;;;;;;;;5034661;28;20045;-72
2022/04/19 12:19:09;;;;;;;33.25;19.80;;;;;;;;;;5034460;28;20039;-73
2022/04/19 12:21:42;;;;;;;33.78;20.85;;;;;;;;;;5037356;28;20029;-73
2022/04/19 12:24:17;;;;;;;31.83;19.25;;;;;;;;;;5049889;28;20033;-73
2022/04/19 12:26:42;;;;;;;36.92;20.88;;;;;;;;;;5044153;28;20797;-73
2022/04/19 12:29:13;;;;;;;36.05;19.63;;;;;;;;;;5049969;28;20558;-73
2022/04/19 12:31:41;;;;;;;37.78;20.88;;;;;;;;;;5047976;28;20442;-73
2022/04/19 12:34:08;;;;;;;34.97;20.80;;;;;;;;;;5037448;28;20037;-73
2022/04/19 12:36:50;;;;;;;43.25;21.27;;;;;;;;;;5049802;28;20041;-73
2022/04/19 12:39:21;;;;;;;39.05;20.88;;;;;;;;;;5049486;28;20041;-73
2022/04/19 12:41:47;;;;;;;31.70;19.48;;;;;;;;;;5031470;28;20021;-73
2022/04/19 12:44:14;;;;;;;29.90;17.35;;;;;;;;;;5047658;28;20048;-73
2022/04/19 12:46:46;;;;;;;28.77;16.45;;;;;;;;;;5049321;28;20033;-74
2022/04/19 12:49:24;;;;;;;27.27;14.43;;;;;;;;;;5049384;28;20036;-73
2022/04/19 12:52:04;;;;;;;26.17;14.32;;;;;;;;;;5048266;28;20119;-75
2022/04/19 12:54:30;;;;;;;28.38;14.55;;;;;;;;;;5048121;28;20043;-73
2022/04/19 12:57:03;;;;;;;25.90;15.60;;;;;;;;;;5048792;28;20029;-74
2022/04/19 12:59:33;;;;;;;26.60;15.13;;;;;;;;;;5046623;28;20454;-74
2022/04/19 13:01:59;;;;;;;30.58;15.95;;;;;;;;;;5049459;28;20041;-75
2022/04/19 13:04:25;;;;;;;26.70;15.18;;;;;;;;;;5049395;28;20068;-75
2022/04/19 13:12:22;;;;;;;22.13;12.70;;;;;;;;;;5037113;28;20064;-75
2022/04/19 13:14:49;;;;;;;22.88;12.55;;;;;;;;;;5043613;28;20021;-75
2022/04/19 13:17:15;;;;;;;21.88;11.32;;;;;;;;;;5042048;28;20021;-74
2022/04/19 13:19:41;;;;;;;21.08;11.60;;;;;;;;;;5043569;28;20592;-74
2022/04/19 13:22:10;;;;;;;19.98;11.57;;;;;;;;;;5048274;28;20033;-75
2022/04/19 13:24:39;;;;;;;17.73;10.45;;;;;;;;;;5049039;28;20033;-74
2022/04/19 13:27:06;;;;;;;21.65;11.13;;;;;;;;;;5039771;28;20030;-74
2022/04/19 13:29:33;;;;;;;19.00;10.98;;;;;;;;;;5049157;28;20403;-74
2022/04/19 13:31:58;;;;;;;22.88;12.35;;;;;;;;;;5038952;28;20045;-75
2022/04/19 13:34:23;;;;;;;16.95;10.25;;;;;;;;;;5036633;28;20041;-74
2022/04/19 13:36:49;;;;;;;14.65;8.68;;;;;;;;;;5048821;28;20164;-75
2022/04/19 13:39:15;;;;;;;18.58;9.68;;;;;;;;;;5048601;28;20151;-74
2022/04/19 13:41:43;;;;;;;15.02;8.98;;;;;;;;;;5048178;28;20403;-74
2022/04/19 13:44:10;;;;;;;17.38;9.30;;;;;;;;;;5049466;28;20040;-75
2022/04/19 13:46:40;;;;;;;14.88;8.63;;;;;;;;;;5031783;28;20045;-75
2022/04/19 13:49:06;;;;;;;16.75;8.32;;;;;;;;;;5031515;28;20751;-74
2022/04/19 13:51:32;;;;;;;14.85;9.50;;;;;;;;;;5047940;28;20052;-74
2022/04/19 13:53:58;;;;;;;15.43;8.68;;;;;;;;;;5047060;28;20396;-74
2022/04/19 13:56:23;;;;;;;12.80;8.48;;;;;;;;;;5061011;28;20497;-71
2022/04/19 13:58:48;;;;;;;13.90;7.38;;;;;;;;;;5059327;28;20876;-70
2022/04/19 14:01:14;;;;;;;15.13;7.78;;;;;;;;;;5045295;28;20060;-71
2022/04/19 14:03:40;;;;;;;14.27;7.80;;;;;;;;;;5050368;28;20071;-71
2022/04/19 14:06:05;;;;;;;11.55;7.70;;;;;;;;;;5047342;28;20044;-71
2022/04/19 14:08:32;;;;;;;13.73;7.78;;;;;;;;;;5048088;28;20021;-71
2022/04/19 14:10:58;;;;;;;11.98;7.40;;;;;;;;;;5047478;28;20033;-71
2022/04/19 14:13:25;;;;;;;13.15;7.55;;;;;;;;;;5046126;28;20098;-72
2022/04/19 14:15:51;;;;;;;13.07;8.07;;;;;;;;;;5043542;28;20073;-71
2022/04/19 14:18:17;;;;;;;17.15;8.05;;;;;;;;;;5044305;28;20041;-71
2022/04/19 14:20:42;;;;;;;14.88;8.15;;;;;;;;;;5050904;28;20036;-71
2022/04/19 14:23:08;;;;;;;23.85;8.18;;;;;;;;;;5047863;28;20024;-71
2022/04/19 14:25:33;;;;;;;12.65;7.28;;;;;;;;;;5047336;28;20041;-71
2022/04/19 14:27:59;;;;;;;14.68;8.18;;;;;;;;;;5046654;28;20024;-71
2022/04/19 14:33:21;;;;;;;13.32;8.15;;;;;;;;;;5042365;28;20104;-71
2022/04/19 14:35:49;;;;;;;11.30;7.55;;;;;;;;;;5047720;28;20031;-71
2022/04/19 14:38:16;;;;;;;13.48;7.82;;;;;;;;;;5048010;28;20025;-71
2022/04/19 14:40:42;;;;;;;15.25;8.30;;;;;;;;;;5047438;28;20547;-71
2022/04/19 14:43:07;;;;;;;13.48;8.68;;;;;;;;;;5047707;28;20041;-71
2022/04/19 14:45:33;;;;;;;13.82;8.13;;;;;;;;;;5047192;28;20584;-71
2022/04/19 14:47:58;;;;;;;13.38;8.50;;;;;;;;;;5047135;28;20041;-71
2022/04/19 14:50:24;;;;;;;12.15;7.63;;;;;;;;;;5046358;28;20508;-71
2022/04/19 14:52:49;;;;;;;14.55;7.65;;;;;;;;;;5041669;28;20253;-71
2022/04/19 14:55:15;;;;;;;12.95;8.85;;;;;;;;;;5048648;28;20033;-73
2022/04/19 14:57:42;;;;;;;12.75;7.93;;;;;;;;;;5066204;28;20094;-73
2022/04/19 15:00:08;;;;;;;15.95;8.38;;;;;;;;;;5063097;28;20041;-74
2022/04/19 15:02:34;;;;;;;15.48;8.90;;;;;;;;;;5046493;28;20108;-75
2022/04/19 15:05:04;;;;;;;15.88;8.52;;;;;;;;;;5049740;28;20052;-75
2022/04/19 15:07:30;;;;;;;15.45;8.60;;;;;;;;;;5045075;28;20037;-75